Latest Coastal Weather Observations for Cape Otway

IDT60701

Issued at 3:32 am EST Monday 20 May 2019 (issued every 10 minutes, with the page automatically refreshed every 10 minutes)

About coastal observations | Map of coastal stations | Coastal observations for TAS | Marine services | Other Formats
Station Details ID: 090015 Name: CAPE OTWAY LIGHTHOUSE Lat: -38.86 Lon: 143.51 Height: 82.0 m
Data from the previous 72 hours. | See also: Recent months at Cape Otway
Date/Time
EST
Wind Sea
Height
m
Swell Vis
km
Cloud Weather Temp
°C
Press
hPa
Rain since
9am
mm
Dir  Spd
kts
Gust
kts
Height
m
Period
s
Dir
20/03:30am NNE 8 12 - - - - - - - 14.9 1020.5 0.2
20/03:00am W 5 9 - - - - - - - 16.9 1021.0 0.0
20/02:30am W 4 7 - - - - - - - 17.3 1020.9 0.0
20/02:00am NW 5 8 - - - - - - - 17.7 1021.2 0.0
20/01:30am W 8 16 - - - - - - - 18.2 1021.4 0.0
20/01:09am N 17 27 - - - - - - - 18.8 1020.2 0.0
20/01:00am N 18 27 - - - - - - - 18.7 1020.3 0.0
20/12:42am N 16 26 - - - - - - - 18.8 1020.1 0.0
20/12:30am N 17 25 - - - - - - - 18.7 1020.4 0.0
20/12:00am N 16 24 - - - - - - - 18.4 1020.7 0.0
 
Date/Time
EST
Wind Sea
Height
m
Swell Vis
km
Cloud Weather Temp
°C
Press
hPa
Rain since
9am
mm
Dir  Spd
kts
Gust
kts
Height
m
Period
s
Dir
19/11:30pm NNE 13 19 - - - - - - - 18.4 1021.0 0.0
19/11:00pm NNE 9 17 - - - - - - - 17.7 1021.2 0.0
19/10:30pm ENE 5 7 - - - - - - - 16.2 1021.7 0.0
19/10:00pm NE 7 10 - - - - - - - 16.6 1021.8 0.0
19/09:30pm NE 7 12 - - - - - - - 17.1 1022.1 0.0
19/09:00pm NE 4 9 - - - - - - - 16.2 1022.4 0.0
19/08:30pm ESE 4 6 - - - - - - - 16.2 1022.6 0.0
19/08:00pm ENE 6 8 - - - - - - - 16.4 1022.4 0.0
19/07:30pm NE 7 10 - - - - - - - 16.4 1022.5 0.0
19/07:00pm SSE 3 5 - - - - - - - 16.6 1022.7 0.0
19/06:30pm ENE 7 11 - - - - - - - 17.2 1022.6 0.0
19/06:00pm ENE 7 9 - - - - - - - 17.2 1022.7 0.0
19/05:30pm ENE 7 9 - - - - - - - 18.2 1022.7 0.0
19/05:00pm ESE 6 9 - - - - - - - 17.6 1022.9 0.0
19/04:30pm NNE 8 14 - - - - - - - 20.7 1023.0 0.0
19/04:00pm N 10 15 - - - - - - - 20.2 1023.1 0.0
19/03:30pm N 11 17 - - - - - - - 21.0 1023.3 0.0
19/03:00pm N 12 17 - - - - - - - 21.6 1023.3 0.0
19/02:30pm N 13 20 - - - - - - - 20.3 1023.4 0.0
19/02:00pm N 13 18 - - - - - - - 21.3 1023.6 0.0
19/01:30pm N 12 18 - - - - - - - 21.7 1024.0 0.0
19/01:00pm N 13 20 - - - - - - - 20.8 1024.3 0.0
19/12:30pm N 12 18 - - - - - - - 21.2 1024.9 0.0
19/12:00pm N 10 15 - - - - - - - 21.1 1025.5 0.0
19/11:30am N 9 16 - - - - - - - 20.9 1026.2 0.0
19/11:00am ESE 5 9 - - - - - - - 17.7 1026.7 0.0
19/10:30am ENE 6 12 - - - - - - - 17.0 1027.1 0.0
19/10:00am ESE 3 6 - - - - - - - 16.6 1027.3 0.0
19/09:30am ESE 5 7 - - - - - - - 15.6 1027.4 0.0
19/09:00am ENE 6 8 - - - - - - - 15.1 1027.5 0.0
19/08:30am NE 7 10 - - - - - - - 13.2 1027.4 0.0
19/08:00am NE 8 10 - - - - - - - 12.7 1027.3 0.0
19/07:30am NE 9 11 - - - - - - - 12.7 1027.4 0.0
19/07:00am NE 10 12 - - - - - - - 13.0 1027.3 0.0
19/06:30am NE 9 12 - - - - - - - 13.3 1027.2 0.0
19/06:00am NE 10 14 - - - - - - - 13.7 1027.0 0.0
19/05:30am NE 9 13 - - - - - - - 13.2 1027.0 0.0
19/05:00am NE 11 14 - - - - - - - 13.5 1027.1 0.0
19/04:30am NE 12 15 - - - - - - - 13.5 1027.1 0.0
19/04:00am NE 12 15 - - - - - - - 13.0 1027.2 0.0
19/03:30am NE 12 16 - - - - - - - 12.9 1027.3 0.0
19/03:00am NE 14 17 - - - - - - - 13.2 1027.7 0.0
19/02:30am NE 13 16 - - - - - - - 12.7 1027.8 0.0
19/02:00am NE 13 17 - - - - - - - 12.9 1028.0 0.0
19/01:30am NE 11 15 - - - - - - - 12.8 1028.1 0.0
19/01:00am NE 11 15 - - - - - - - 12.8 1028.3 0.0
19/12:30am NE 12 16 - - - - - - - 12.6 1028.5 0.0
19/12:00am NE 13 17 - - - - - - - 12.6 1028.6 0.0
 
Date/Time
EST
Wind Sea
Height
m
Swell Vis
km
Cloud Weather Temp
°C
Press
hPa
Rain since
9am
mm
Dir  Spd
kts
Gust
kts
Height
m
Period
s
Dir
18/11:30pm NE 13 18 - - - - - - - 12.7 1028.9 0.0
18/11:00pm NE 12 15 - - - - - - - 12.7 1029.2 0.0
18/10:30pm NE 12 15 - - - - - - - 12.9 1029.4 0.0
18/10:00pm NE 11 14 - - - - - - - 12.7 1029.5 0.0
18/09:30pm NE 12 15 - - - - - - - 12.5 1029.5 0.0
18/09:00pm NE 11 15 - - - - - - - 12.7 1029.3 0.0
18/08:30pm NE 11 13 - - - - - - - 12.7 1029.3 0.0
18/08:00pm NE 11 12 - - - - - - - 12.6 1029.3 0.0
18/07:30pm NE 10 12 - - - - - - - 12.9 1029.3 0.0
18/07:00pm NNE 10 12 - - - - - - - 12.7 1029.4 0.0
18/06:30pm NE 10 13 - - - - - - - 13.2 1029.2 0.0
18/06:00pm NE 10 12 - - - - - - - 13.2 1028.8 0.0
18/05:30pm ENE 9 12 - - - - - - - 13.5 1028.9 0.0
18/05:00pm ENE 8 12 - - - - - - - 14.1 1028.6 0.0
18/04:30pm E 7 11 - - - - - - - 14.6 1028.5 0.0
18/04:00pm E 7 12 - - - - - - - 15.1 1028.5 0.0
18/03:30pm E 5 9 - - - - - - - 15.6 1028.6 0.0
18/03:00pm E 5 7 - - - - - - - 15.9 1028.7 0.0
18/02:30pm E 4 5 - - - - - - - 16.5 1028.8 0.0
18/02:00pm E 3 5 - - - - - - - 16.5 1028.8 0.0
18/01:30pm ESE 3 5 - - - - - - - 15.7 1029.1 0.0
18/01:00pm ESE 4 5 - - - - - - - 15.7 1029.5 0.0
18/12:30pm ESE 5 6 - - - - - - - 15.7 1029.8 0.0
18/12:00pm ESE 4 5 - - - - - - - 15.7 1030.1 0.0
18/11:30am ESE 4 5 - - - - - - - 15.9 1030.4 0.0
18/11:00am ESE 4 6 - - - - - - - 15.9 1030.3 0.0
18/10:30am E 3 4 - - - - - - - 16.7 1030.2 0.0
18/10:00am E 4 5 - - - - - - - 15.5 1030.2 0.0
18/09:30am E 4 5 - - - - - - - 14.9 1030.1 0.0
18/09:00am NE 6 8 - - - - - - - 14.0 1030.1 0.0
18/08:30am ENE 4 5 - - - - - - - 11.8 1029.9 0.0
18/08:00am NNE 4 5 - - - - - - - 9.4 1029.7 0.0
18/07:30am NNE 4 4 - - - - - - - 8.9 1029.5 0.0
18/07:00am CALM 0 0 - - - - - - - 8.5 1029.4 0.0
18/06:30am NE 4 5 - - - - - - - 10.2 1029.2 0.0
18/06:00am NNW 7 8 - - - - - - - 9.9 1028.9 0.0
18/05:30am N 7 9 - - - - - - - 9.9 1028.7 0.0
18/05:00am NNW 6 7 - - - - - - - 10.1 1028.9 0.0
18/04:30am NNE 7 8 - - - - - - - 10.2 1028.7 0.0
18/04:00am NNE 9 10 - - - - - - - 11.5 1028.5 0.0
18/03:30am NNE 9 11 - - - - - - - 12.1 1028.5 0.0
18/03:00am NNE 10 12 - - - - - - - 12.0 1028.7 0.0
18/02:30am NNE 9 10 - - - - - - - 11.9 1028.7 0.0
18/02:00am NNE 10 12 - - - - - - - 11.7 1028.6 0.0
18/01:30am NNE 10 12 - - - - - - - 11.8 1028.5 0.0
18/01:00am NE 10 12 - - - - - - - 11.9 1028.4 0.0
18/12:30am NE 10 12 - - - - - - - 11.8 1028.4 0.0
18/12:00am NE 9 11 - - - - - - - 11.5 1028.7 0.0
 
Date/Time
EST
Wind Sea
Height
m
Swell Vis
km
Cloud Weather Temp
°C
Press
hPa
Rain since
9am
mm
Dir  Spd
kts
Gust
kts
Height
m
Period
s
Dir
17/11:30pm NE 7 9 - - - - - - - 11.1 1028.7 0.0
17/11:00pm NE 8 9 - - - - - - - 11.7 1028.6 0.0
17/10:30pm NE 8 9 - - - - - - - 11.8 1028.7 0.0
17/10:00pm NNE 7 8 - - - - - - - 11.6 1028.6 0.0
17/09:30pm NNE 7 9 - - - - - - - 11.7 1028.5 0.0
17/09:00pm NNE 7 9 - - - - - - - 11.9 1028.4 0.0
17/08:30pm NNE 8 9 - - - - - - - 11.9 1028.1 0.0
17/08:00pm NE 9 10 - - - - - - - 12.2 1027.8 0.0
17/07:30pm NE 8 9 - - - - - - - 12.3 1027.6 0.0
17/07:00pm NE 9 11 - - - - - - - 12.4 1027.3 0.0
17/06:30pm NE 9 11 - - - - - - - 12.6 1026.9 0.0
17/06:00pm NE 8 10 - - - - - - - 12.6 1026.7 0.0
17/05:30pm NE 8 9 - - - - - - - 12.7 1026.6 0.0
17/05:00pm NE 7 9 - - - - - - - 13.5 1026.4 0.0
17/04:30pm ENE 7 9 - - - - - - - 14.3 1026.4 0.0
17/04:00pm ENE 7 9 - - - - - - - 14.4 1026.3 0.0
17/03:30pm E 6 9 - - - - - - - 15.0 1026.3 0.0
17/03:00pm E 6 9 - - - - - - - 15.5 1026.3 0.0
17/02:30pm E 6 8 - - - - - - - 15.5 1026.1 0.0
17/02:00pm E 5 7 - - - - - - - 15.8 1026.2 0.0
17/01:30pm ESE 7 8 - - - - - - - 15.2 1026.5 0.0
17/01:00pm E 5 7 - - - - - - - 15.3 1026.6 0.0
17/12:30pm ESE 6 7 - - - - - - - 14.7 1026.9 0.0
17/12:00pm ESE 5 6 - - - - - - - 14.9 1027.1 0.0
17/11:30am ESE 5 6 - - - - - - - 14.7 1027.3 0.0
17/11:00am ESE 5 6 - - - - - - - 15.1 1027.3 0.0
17/10:30am NNW 5 7 - - - - - - - 16.1 1027.5 0.0
17/10:00am N 6 8 - - - - - - - 15.2 1027.5 0.0
17/09:30am NNW 6 8 - - - - - - - 14.4 1027.5 0.0
17/09:00am N 7 8 - - - - - - - 13.2 1027.4 0.0
17/08:30am N 8 10 - - - - - - - 11.7 1027.2 0.0
17/08:00am N 8 9 - - - - - - - 10.2 1026.8 0.0
17/07:30am N 9 11 - - - - - - - 9.7 1026.6 0.0
17/07:00am N 9 10 - - - - - - - 9.6 1026.2 0.0
17/06:30am N 9 11 - - - - - - - 9.5 1026.0 0.0
17/06:00am N 9 10 - - - - - - - 9.4 1025.8 0.0
17/05:30am N 9 10 - - - - - - - 9.4 1025.6 0.0
17/05:00am N 8 10 - - - - - - - 9.5 1025.3 0.0
17/04:30am N 9 10 - - - - - - - 9.7 1025.3 0.0
17/04:00am N 9 10 - - - - - - - 9.8 1025.4 0.0

Other formats

Comma delimited format used in spreadsheet applications
http://www.bom.gov.au/fwo/IDT60701/IDT60701.94842.axf

JavaScript Object Notation format (JSON) in row-major order
http://www.bom.gov.au/fwo/IDT60701/IDT60701.94842.json

Data quality

Most of these data are generated automatically and are frequently updated. Quality checks on data are not normally performed. It is possible for incorrect values to appear. Refer to information at About Latest Weather Observations and please check the disclaimer before using these data.